Portada
METAR-TAF:

METAR-TAF

Aeropuertos :

Gibraltar, Gibraltar

Aeropuerto de Gibraltar

latitud: 36-09N, longitud: 005-21W, altitud: 5 m

Observación

El informe se hizo hace 41 minutos, a las 07:50 UTC
Viento 3 kt del este-sureste
Temperatura 22°C
Humedad 73%
Presión 1017 hPa
Visibilidad 10 km o más
Escasas nubes a una altura de 1400 ft
Cielo nuboso a una altura de 25000 ft

METAR: LXGB 280750Z 11003KT 9999 FEW014 BKN250 22/17 Q1017 NOSIG

Hora: 10:31 (08:31 UTC)

Pronóstico

El informe se hizo hace 4 horas y 1 minutos, a las 04:30 UTC
Pronóstico válido del 28 a las 06 UTC al 28 a las 15 UTC
Viento 5 kt del este-noreste
Visibilidad 10 km o más
Escasas nubes a una altura de 1200 ft
Nubes dispersas a una altura de 6000 ft
Probabilidad 30% :
Temporalmente
del 28 a las 06 UTC al 28 a las 09 UTC
Visibilidad: 7000 m
Nubes dispersas a una altura de 1200 ft
calima

TAF: LXGB 280430Z 2806/2815 07005KT 9999 FEW012 SCT060 PROB30 TEMPO 2806/2809 7000 HZ SCT012

Observaciones y pronósticos meteorológicos de más de 4000 aeropuertos (mensajes METAR y TAF).

Los puntos amarillos y rojos representan las estaciones disponibles.

Ponga el ratón en el punto deseado para ver el nombre de la estación.

Haga clic para ver las observaciones y los pronósticos meteorológicos.

Para cambiar el mapa : haga clic en los botones verdes con una cruz de color negro para hacer un zoom, en el botón verde con un guión para alejar o en las flechas verdes para mapas adyacentes.


METAR-TAF: